S C — FGF7634 — position and weather

sailwx.info

Track history (hours):
 
Tides and Currents Weather Stations Pressure Air Temp Water Temp Dewpoint Dewpoint Depression Visibility Wind Speed Wind Dir Waves Ship Positions

S C

Last reported at 2014-Sep-19 01:34 UTC. Time now 2014-Sep-19 01:52 UTC.
Position N 49°29' E 000°07'.

; draft 1 m.

Type: Pilot. MMSI: 227001820.

Date/timePositionNaut miles runAvg speedWind from/ knotsBaromVisibWave heightAir tempDewpointWater temp
2014-Sep-19 01:34N 49°29' E 000°07'0 0.0
2014-Sep-19 00:33N 49°29' E 000°07'0 0.0
2014-Sep-18 23:33N 49°29' E 000°07'0 0.0
2014-Sep-18 22:33N 49°29' E 000°07'0 0.1
2014-Sep-18 21:33N 49°29' E 000°07'2 2.5
2014-Sep-18 20:33N 49°30' E 000°03'3 2.6
2014-Sep-18 19:33N 49°29' E 000°07'0 0.0
2014-Sep-18 18:33N 49°29' E 000°07'3 3.5
2014-Sep-18 17:33N 49°29' E 000°01'3 3.5
2014-Sep-18 16:33N 49°29' E 000°07'3 3.0
2014-Sep-18 15:34N 49°30' E 000°02'3 3.0
2014-Sep-18 14:33N 49°29' E 000°07'0 0.0
2014-Sep-18 13:34N 49°29' E 000°07'0 0.0
2014-Sep-18 12:33N 49°29' E 000°07'9 8.9
2014-Sep-18 11:33N 49°31' W 000°06'9 8.8
2014-Sep-18 10:33N 49°29' E 000°07'1 1.5
2014-Sep-18 09:34N 49°29' E 000°05'1 1.5
2014-Sep-18 08:33N 49°29' E 000°07'0 0.0
2014-Sep-18 07:33N 49°29' E 000°07'0 0.0
2014-Sep-18 06:33N 49°29' E 000°07'0 0.0
2014-Sep-18 05:33N 49°29' E 000°07'0 0.0
2014-Sep-18 04:34N 49°29' E 000°07'0 0.0
2014-Sep-18 03:33N 49°29' E 000°07'0 0.0
2014-Sep-18 02:33N 49°29' E 000°07'0 0.0
2014-Sep-18 01:33N 49°29' E 000°07'0 0.0
2014-Sep-18 00:33N 49°29' E 000°07'0 0.0
2014-Sep-17 23:33N 49°29' E 000°07'8 7.6
2014-Sep-17 22:33N 49°31' W 000°04'6 6.3
2014-Sep-17 21:34N 49°29' E 000°05'1 1.2
2014-Sep-17 20:33N 49°29' E 000°07'0 0.0
2014-Sep-17 19:33N 49°29' E 000°07'0 0.5
2014-Sep-17 18:33N 49°29' E 000°06'0 0.2
2014-Sep-17 17:33N 49°29' E 000°06'0 0.3
2014-Sep-17 16:33N 49°29' E 000°07'0 0.0
2014-Sep-17 15:33N 49°29' E 000°07'4 4.0
2014-Sep-17 14:33N 49°30' E 000°01'6 6.0
2014-Sep-17 13:33N 49°32' W 000°08'10 9.9
2014-Sep-17 12:34N 49°29' E 000°07'0 0.0
2014-Sep-17 11:34N 49°29' E 000°07'0 0.0
2014-Sep-17 10:33N 49°29' E 000°07'1 0.6
2014-Sep-17 09:33N 49°29' E 000°06'1 0.6
2014-Sep-17 08:33N 49°29' E 000°07'0 0.0
2014-Sep-17 07:33N 49°29' E 000°07'0 0.1
2014-Sep-17 06:33N 49°29' E 000°07'0 0.1
2014-Sep-17 05:33N 49°29' E 000°07'6 5.5
2014-Sep-17 04:33N 49°30' W 000°01'6 5.5
2014-Sep-17 03:33N 49°29' E 000°07'7 7.2
2014-Sep-17 02:33N 49°31' W 000°04'7 7.3
2014-Sep-17 01:34N 49°29' E 000°07'0 0.0
2014-Sep-17 00:33N 49°29' E 000°07'0 0.0
2014-Sep-16 23:33N 49°29' E 000°07'6 5.6
2014-Sep-16 22:33N 49°30' W 000°02'6 5.6
2014-Sep-16 21:33N 49°29' E 000°07'6 5.8
2014-Sep-16 20:33N 49°32' W 000°01'2 1.9
2014-Sep-16 19:34N 49°30' W 000°01'5 5.2
2014-Sep-16 18:33N 49°29' E 000°07'5 5.4
2014-Sep-16 17:33N 49°30' W 000°01'5 5.4
2014-Sep-16 16:33N 49°29' E 000°07'3 3.3
2014-Sep-16 15:34N 49°30' E 000°02'3 3.3
2014-Sep-16 14:34N 49°29' E 000°07'0 0.0
2014-Sep-16 13:33N 49°29' E 000°07'0 0.1
2014-Sep-16 12:34N 49°29' E 000°07'0 0.1
2014-Sep-16 11:33N 49°29' E 000°07'0 0.0
2014-Sep-16 10:33N 49°29' E 000°07'0 0.0
2014-Sep-16 09:33N 49°29' E 000°07'0 0.0
2014-Sep-16 08:33N 49°29' E 000°07'5 5.5
2014-Sep-16 07:34N 49°30' W 000°01'5 5.4
2014-Sep-16 06:33N 49°29' E 000°07'0 0.0
2014-Sep-16 05:33N 49°29' E 000°07'6 6.0
2014-Sep-16 04:33N 49°31' W 000°02'1 0.9
2014-Sep-16 03:34N 49°31' W 000°03'7 6.8
2014-Sep-16 02:33N 49°29' E 000°07'9 9.1
2014-Sep-16 01:33N 49°32' W 000°07'9 9.1
2014-Sep-16 00:33N 49°29' E 000°07'0 0.0
2014-Sep-15 23:34N 49°29' E 000°07'0 0.0
2014-Sep-15 22:34N 49°29' E 000°07'1 0.9
2014-Sep-15 21:33N 49°29' E 000°05'1 0.9
2014-Sep-15 20:33N 49°29' E 000°07'0 0.0
2014-Sep-15 19:33N 49°29' E 000°07'0 0.0
2014-Sep-15 18:33N 49°29' E 000°07'3 3.1
2014-Sep-15 17:34N 49°30' E 000°02'3 3.0
2014-Sep-15 16:33N 49°29' E 000°07'0 0.1
2014-Sep-15 15:33N 49°29' E 000°07'0 0.0
2014-Sep-15 14:33N 49°29' E 000°07'0 0.0
2014-Sep-15 13:33N 49°29' E 000°07'0 0.0
2014-Sep-15 12:33N 49°29' E 000°07'0 0.0
2014-Sep-15 11:34N 49°29' E 000°07'0 0.1
2014-Sep-15 10:33N 49°29' E 000°07'0 0.1
2014-Sep-15 09:34N 49°29' E 000°07'0 0.0
2014-Sep-15 08:33N 49°29' E 000°07'0 0.1
2014-Sep-15 07:34N 49°29' E 000°07'0 0.2
2014-Sep-15 06:33N 49°29' E 000°07'0 0.1
2014-Sep-15 05:33N 49°29' E 000°07'0 0.0
2014-Sep-15 04:33N 49°29' E 000°07'0 0.0
2014-Sep-15 03:33N 49°29' E 000°07'2 2.1
2014-Sep-15 02:33N 49°29' E 000°04'2 2.1
2014-Sep-15 01:33N 49°29' E 000°07'0 0.0
2014-Sep-15 00:33N 49°29' E 000°07'0 0.0
2014-Sep-14 23:33N 49°29' E 000°07'0 0.0
2014-Sep-14 22:33N 49°29' E 000°07'1 1.3
2014-Sep-14 21:33N 49°29' E 000°05'2 2.0
2014-Sep-14 20:33N 49°30' E 000°02'3 3.2
2014-Sep-14 19:33N 49°29' E 000°07'0 0.2
2014-Sep-14 18:34N 49°29' E 000°06'0 0.2
2014-Sep-14 17:34N 49°29' E 000°07'0 0.0
2014-Sep-14 16:34N 49°29' E 000°07'0 0.0
2014-Sep-14 15:33N 49°29' E 000°07'7 7.0
2014-Sep-14 14:33N 49°31' W 000°04'7 7.0
2014-Sep-14 13:33N 49°29' E 000°07'0 0.0
2014-Sep-14 12:34N 49°29' E 000°07'0 0.0
2014-Sep-14 11:33N 49°29' E 000°07'3 2.7
2014-Sep-14 10:34N 49°30' E 000°03'3 2.7
2014-Sep-14 09:33N 49°29' E 000°07'0 0.1
2014-Sep-14 08:33N 49°29' E 000°07'0 0.0
2014-Sep-14 07:33N 49°29' E 000°07'8 8.4
2014-Sep-14 06:34N 49°31' W 000°06'8 8.4
2014-Sep-14 05:33N 49°29' E 000°07'0 0.0
2014-Sep-12 08:20N 49°29' E 000°07'0 0.0
2014-Sep-12 07:33N 49°29' E 000°07'0 0.0
2014-Sep-12 02:16N 49°29' E 000°07'0 0.0
2014-Sep-10 14:33N 49°29' E 000°07'  
Track history (hours):
 
Tides and Currents Weather Stations Pressure Air Temp Water Temp Dewpoint Dewpoint Depression Visibility Wind Speed Wind Dir Waves Ship Positions

S C

Last reported at 2014-Sep-19 01:34 UTC. Time now 2014-Sep-19 01:52 UTC.
Position N 49°29' E 000°07'.

; draft 1 m.

Type: Pilot. MMSI: 227001820.

Date/timePositionNaut miles runAvg speedWind from/ knotsBaromVisibWave heightAir tempDewpointWater temp
2014-Sep-19 01:34N 49°29' E 000°07'0 0.0
2014-Sep-19 00:33N 49°29' E 000°07'0 0.0
2014-Sep-18 23:33N 49°29' E 000°07'0 0.0
2014-Sep-18 22:33N 49°29' E 000°07'0 0.1
2014-Sep-18 21:33N 49°29' E 000°07'2 2.5
2014-Sep-18 20:33N 49°30' E 000°03'3 2.6
2014-Sep-18 19:33N 49°29' E 000°07'0 0.0
2014-Sep-18 18:33N 49°29' E 000°07'3 3.5
2014-Sep-18 17:33N 49°29' E 000°01'3 3.5
2014-Sep-18 16:33N 49°29' E 000°07'3 3.0
2014-Sep-18 15:34N 49°30' E 000°02'3 3.0
2014-Sep-18 14:33N 49°29' E 000°07'0 0.0
2014-Sep-18 13:34N 49°29' E 000°07'0 0.0
2014-Sep-18 12:33N 49°29' E 000°07'9 8.9
2014-Sep-18 11:33N 49°31' W 000°06'9 8.8
2014-Sep-18 10:33N 49°29' E 000°07'1 1.5
2014-Sep-18 09:34N 49°29' E 000°05'1 1.5
2014-Sep-18 08:33N 49°29' E 000°07'0 0.0
2014-Sep-18 07:33N 49°29' E 000°07'0 0.0
2014-Sep-18 06:33N 49°29' E 000°07'0 0.0
2014-Sep-18 05:33N 49°29' E 000°07'0 0.0
2014-Sep-18 04:34N 49°29' E 000°07'0 0.0
2014-Sep-18 03:33N 49°29' E 000°07'0 0.0
2014-Sep-18 02:33N 49°29' E 000°07'0 0.0
2014-Sep-18 01:33N 49°29' E 000°07'0 0.0
2014-Sep-18 00:33N 49°29' E 000°07'0 0.0
2014-Sep-17 23:33N 49°29' E 000°07'8 7.6
2014-Sep-17 22:33N 49°31' W 000°04'6 6.3
2014-Sep-17 21:34N 49°29' E 000°05'1 1.2
2014-Sep-17 20:33N 49°29' E 000°07'0 0.0
2014-Sep-17 19:33N 49°29' E 000°07'0 0.5
2014-Sep-17 18:33N 49°29' E 000°06'0 0.2
2014-Sep-17 17:33N 49°29' E 000°06'0 0.3
2014-Sep-17 16:33N 49°29' E 000°07'0 0.0
2014-Sep-17 15:33N 49°29' E 000°07'4 4.0
2014-Sep-17 14:33N 49°30' E 000°01'6 6.0
2014-Sep-17 13:33N 49°32' W 000°08'10 9.9
2014-Sep-17 12:34N 49°29' E 000°07'0 0.0
2014-Sep-17 11:34N 49°29' E 000°07'0 0.0
2014-Sep-17 10:33N 49°29' E 000°07'1 0.6
2014-Sep-17 09:33N 49°29' E 000°06'1 0.6
2014-Sep-17 08:33N 49°29' E 000°07'0 0.0
2014-Sep-17 07:33N 49°29' E 000°07'0 0.1
2014-Sep-17 06:33N 49°29' E 000°07'0 0.1
2014-Sep-17 05:33N 49°29' E 000°07'6 5.5
2014-Sep-17 04:33N 49°30' W 000°01'6 5.5
2014-Sep-17 03:33N 49°29' E 000°07'7 7.2
2014-Sep-17 02:33N 49°31' W 000°04'7 7.3
2014-Sep-17 01:34N 49°29' E 000°07'0 0.0
2014-Sep-17 00:33N 49°29' E 000°07'0 0.0
2014-Sep-16 23:33N 49°29' E 000°07'6 5.6
2014-Sep-16 22:33N 49°30' W 000°02'6 5.6
2014-Sep-16 21:33N 49°29' E 000°07'6 5.8
2014-Sep-16 20:33N 49°32' W 000°01'2 1.9
2014-Sep-16 19:34N 49°30' W 000°01'5 5.2
2014-Sep-16 18:33N 49°29' E 000°07'5 5.4
2014-Sep-16 17:33N 49°30' W 000°01'5 5.4
2014-Sep-16 16:33N 49°29' E 000°07'3 3.3
2014-Sep-16 15:34N 49°30' E 000°02'3 3.3
2014-Sep-16 14:34N 49°29' E 000°07'0 0.0
2014-Sep-16 13:33N 49°29' E 000°07'0 0.1
2014-Sep-16 12:34N 49°29' E 000°07'0 0.1
2014-Sep-16 11:33N 49°29' E 000°07'0 0.0
2014-Sep-16 10:33N 49°29' E 000°07'0 0.0
2014-Sep-16 09:33N 49°29' E 000°07'0 0.0
2014-Sep-16 08:33N 49°29' E 000°07'5 5.5
2014-Sep-16 07:34N 49°30' W 000°01'5 5.4
2014-Sep-16 06:33N 49°29' E 000°07'0 0.0
2014-Sep-16 05:33N 49°29' E 000°07'6 6.0
2014-Sep-16 04:33N 49°31' W 000°02'1 0.9
2014-Sep-16 03:34N 49°31' W 000°03'7 6.8
2014-Sep-16 02:33N 49°29' E 000°07'9 9.1
2014-Sep-16 01:33N 49°32' W 000°07'9 9.1
2014-Sep-16 00:33N 49°29' E 000°07'0 0.0
2014-Sep-15 23:34N 49°29' E 000°07'0 0.0
2014-Sep-15 22:34N 49°29' E 000°07'1 0.9
2014-Sep-15 21:33N 49°29' E 000°05'1 0.9
2014-Sep-15 20:33N 49°29' E 000°07'0 0.0
2014-Sep-15 19:33N 49°29' E 000°07'0 0.0
2014-Sep-15 18:33N 49°29' E 000°07'3 3.1
2014-Sep-15 17:34N 49°30' E 000°02'3 3.0
2014-Sep-15 16:33N 49°29' E 000°07'0 0.1
2014-Sep-15 15:33N 49°29' E 000°07'0 0.0
2014-Sep-15 14:33N 49°29' E 000°07'0 0.0
2014-Sep-15 13:33N 49°29' E 000°07'0 0.0
2014-Sep-15 12:33N 49°29' E 000°07'0 0.0
2014-Sep-15 11:34N 49°29' E 000°07'0 0.1
2014-Sep-15 10:33N 49°29' E 000°07'0 0.1
2014-Sep-15 09:34N 49°29' E 000°07'0 0.0
2014-Sep-15 08:33N 49°29' E 000°07'0 0.1
2014-Sep-15 07:34N 49°29' E 000°07'0 0.2
2014-Sep-15 06:33N 49°29' E 000°07'0 0.1
2014-Sep-15 05:33N 49°29' E 000°07'0 0.0
2014-Sep-15 04:33N 49°29' E 000°07'0 0.0
2014-Sep-15 03:33N 49°29' E 000°07'2 2.1
2014-Sep-15 02:33N 49°29' E 000°04'2 2.1
2014-Sep-15 01:33N 49°29' E 000°07'0 0.0
2014-Sep-15 00:33N 49°29' E 000°07'0 0.0
2014-Sep-14 23:33N 49°29' E 000°07'0 0.0
2014-Sep-14 22:33N 49°29' E 000°07'1 1.3
2014-Sep-14 21:33N 49°29' E 000°05'2 2.0
2014-Sep-14 20:33N 49°30' E 000°02'3 3.2
2014-Sep-14 19:33N 49°29' E 000°07'0 0.2
2014-Sep-14 18:34N 49°29' E 000°06'0 0.2
2014-Sep-14 17:34N 49°29' E 000°07'0 0.0
2014-Sep-14 16:34N 49°29' E 000°07'0 0.0
2014-Sep-14 15:33N 49°29' E 000°07'7 7.0
2014-Sep-14 14:33N 49°31' W 000°04'7 7.0
2014-Sep-14 13:33N 49°29' E 000°07'0 0.0
2014-Sep-14 12:34N 49°29' E 000°07'0 0.0
2014-Sep-14 11:33N 49°29' E 000°07'3 2.7
2014-Sep-14 10:34N 49°30' E 000°03'3 2.7
2014-Sep-14 09:33N 49°29' E 000°07'0 0.1
2014-Sep-14 08:33N 49°29' E 000°07'0 0.0
2014-Sep-14 07:33N 49°29' E 000°07'8 8.4
2014-Sep-14 06:34N 49°31' W 000°06'8 8.4
2014-Sep-14 05:33N 49°29' E 000°07'0 0.0
2014-Sep-12 08:20N 49°29' E 000°07'0 0.0
2014-Sep-12 07:33N 49°29' E 000°07'0 0.0
2014-Sep-12 02:16N 49°29' E 000°07'0 0.0
2014-Sep-10 14:33N 49°29' E 000°07'  

Dump ship's entire track history